createdAt,value
2018-11-25T00:00:14.822Z,52.7
2018-11-25T00:01:16.445Z,52.7
2018-11-25T00:02:18.347Z,52.6
2018-11-25T00:03:20.236Z,52.8
2018-11-25T00:04:22.132Z,52.7
2018-11-25T00:05:24.030Z,53
2018-11-25T00:06:25.655Z,52.7
2018-11-25T00:07:35.026Z,52.8
2018-11-25T00:08:36.139Z,52.9
2018-11-25T00:09:37.193Z,52.7
2018-11-25T00:10:39.093Z,52.8
2018-11-25T00:11:40.428Z,52.7
2018-11-25T00:12:42.050Z,52.9
2018-11-25T00:13:43.954Z,52.9
2018-11-25T00:14:45.851Z,52.9
2018-11-25T00:15:46.900Z,52.9
2018-11-25T00:16:48.799Z,52.8
2018-11-25T00:17:50.423Z,52.7
2018-11-25T00:18:52.023Z,52.8
2018-11-25T00:19:53.350Z,53.3
2018-11-25T00:20:54.952Z,53.4
2018-11-25T00:21:56.852Z,53.2
2018-11-25T00:22:58.179Z,52.6
2018-11-25T00:23:59.528Z,53
2018-11-25T00:25:01.424Z,53
2018-11-25T00:26:02.549Z,53.1
2018-11-25T00:27:03.926Z,53.2
2018-11-25T00:28:05.545Z,53.1
2018-11-25T00:29:07.451Z,53.5
2018-11-25T00:30:09.082Z,52.7
2018-11-25T00:31:10.970Z,52.8
2018-11-25T00:32:12.868Z,52.7
2018-11-25T00:33:14.487Z,52.8
2018-11-25T00:34:16.384Z,53
2018-11-25T00:35:17.476Z,53.6
2018-11-25T00:36:19.372Z,52.7
2018-11-25T00:37:20.998Z,52.7
2018-11-25T00:38:22.895Z,52.9
2018-11-25T00:39:24.518Z,52.9
2018-11-25T00:40:26.140Z,52.9
2018-11-25T00:41:28.038Z,52.9
2018-11-25T00:42:29.638Z,52.8
2018-11-25T00:43:31.261Z,52.8
2018-11-25T00:44:32.881Z,52.7
2018-11-25T00:45:33.937Z,52.7
2018-11-25T00:46:35.835Z,53.6
2018-11-25T00:47:37.163Z,53.3
2018-11-25T00:48:38.799Z,53
2018-11-25T00:49:40.422Z,53.2
2018-11-25T00:50:41.746Z,53.2
2018-11-25T00:51:43.096Z,53.1
2018-11-25T00:52:44.445Z,53.2
2018-11-25T00:53:46.065Z,53.3
2018-11-25T00:54:47.412Z,53.2
2018-11-25T00:55:49.317Z,53.2
2018-11-25T00:56:50.938Z,53.2
2018-11-25T00:57:52.538Z,53
2018-11-25T00:58:54.143Z,53
2018-11-25T00:59:56.039Z,53.3
2018-11-25T01:00:57.663Z,53
2018-11-25T01:01:59.556Z,53.2
2018-11-25T01:03:01.220Z,53
2018-11-25T01:04:02.540Z,53.4
2018-11-25T01:05:04.162Z,53.7
2018-11-25T01:06:05.236Z,52.9
2018-11-25T01:07:07.131Z,53
2018-11-25T01:08:09.072Z,53
2018-11-25T01:09:10.967Z,53.2
2018-11-25T01:10:12.591Z,53
2018-11-25T01:11:14.212Z,52.8
2018-11-25T01:12:15.575Z,53.1
2018-11-25T01:13:16.899Z,53.6
2018-11-25T01:14:18.280Z,53.3
2018-11-25T01:15:20.167Z,53.3
2018-11-25T01:16:20.940Z,53.3
2018-11-25T01:17:22.261Z,53.3
2018-11-25T01:18:23.609Z,53.4
2018-11-25T01:19:24.934Z,53.2
2018-11-25T01:20:26.828Z,53.2
2018-11-25T01:21:28.722Z,53.7
2018-11-25T01:22:30.616Z,53.3
2018-11-25T01:23:32.520Z,53.3
2018-11-25T01:24:34.415Z,52.9
2018-11-25T01:25:36.035Z,53.4
2018-11-25T01:26:37.933Z,53.3
2018-11-25T01:27:39.561Z,53.2
2018-11-25T01:28:41.466Z,53.3
2018-11-25T01:29:42.804Z,52.4
2018-11-25T01:30:44.702Z,53.5
2018-11-25T01:31:46.600Z,52.7
2018-11-25T01:32:48.490Z,52.8
2018-11-25T01:33:49.838Z,53.1
2018-11-25T01:34:51.435Z,53.1
2018-11-25T01:35:52.785Z,53.4
2018-11-25T01:36:54.383Z,52.9
2018-11-25T01:37:56.283Z,52.9
2018-11-25T01:38:57.904Z,53
2018-11-25T01:39:59.794Z,53
2018-11-25T01:41:01.688Z,53.4
2018-11-25T01:42:03.591Z,53.2
2018-11-25T01:43:05.212Z,53.3
2018-11-25T01:44:06.817Z,53.7
2018-11-25T01:45:08.162Z,53.7
2018-11-25T01:46:10.056Z,53.5
2018-11-25T01:47:11.404Z,53.7
2018-11-25T01:48:13.027Z,53.3
2018-11-25T01:49:14.645Z,53.4
2018-11-25T01:50:16.264Z,53.2
2018-11-25T01:51:17.924Z,54
2018-11-25T01:52:19.250Z,53.7
2018-11-25T01:53:20.872Z,53.7
2018-11-25T01:54:22.767Z,53.2
2018-11-25T01:55:24.386Z,53.1
2018-11-25T01:56:25.714Z,52.9
2018-11-25T01:57:27.061Z,53
2018-11-25T01:58:28.133Z,53.6
2018-11-25T01:59:30.026Z,53
2018-11-25T02:00:31.649Z,53
2018-11-25T02:01:32.974Z,53.2
2018-11-25T02:02:34.871Z,53.3
2018-11-25T02:03:36.222Z,53.6
2018-11-25T02:04:37.551Z,53.5
2018-11-25T02:05:39.170Z,53.6
2018-11-25T02:06:40.497Z,53.3
2018-11-25T02:07:42.132Z,53.3
2018-11-25T02:08:44.027Z,53.3
2018-11-25T02:09:45.649Z,53.4
2018-11-25T02:10:47.279Z,53.3
2018-11-25T02:11:48.909Z,53.4
2018-11-25T02:12:50.805Z,53.6
2018-11-25T02:13:52.430Z,53.5
2018-11-25T02:14:54.325Z,53.4
2018-11-25T02:15:56.218Z,53.4
2018-11-25T02:16:58.118Z,53.3
2018-11-25T02:17:59.465Z,53.4
2018-11-25T02:19:01.358Z,53.4
2018-11-25T02:20:03.249Z,53.5
2018-11-25T02:21:04.578Z,53.5
2018-11-25T02:22:05.928Z,53.5
2018-11-25T02:23:07.256Z,53.5
2018-11-25T02:24:08.878Z,53.5
2018-11-25T02:25:10.242Z,53.6
2018-11-25T02:26:12.185Z,53.3
2018-11-25T02:27:13.788Z,53.2
2018-11-25T02:28:15.681Z,53.6
2018-11-25T02:29:17.577Z,53.3
2018-11-25T02:30:19.476Z,53.6
2018-11-25T02:31:21.371Z,53.6
2018-11-25T02:32:22.989Z,53.5
2018-11-25T02:33:24.592Z,53.5
2018-11-25T02:34:25.919Z,53.2
2018-11-25T02:35:27.814Z,53.2
2018-11-25T02:36:29.709Z,53.6
2018-11-25T02:37:31.311Z,53.6
2018-11-25T02:38:32.372Z,53.5
2018-11-25T02:39:33.423Z,53.7
2018-11-25T02:40:34.751Z,53.6
2018-11-25T02:41:36.375Z,53.6
2018-11-25T02:42:38.001Z,53.6
2018-11-25T02:43:39.631Z,53.5
2018-11-25T02:44:41.525Z,53.3
2018-11-25T02:45:43.131Z,53.5
2018-11-25T02:46:44.732Z,53.5
2018-11-25T02:47:46.351Z,53.3
2018-11-25T02:48:48.249Z,53.3
2018-11-25T02:49:49.872Z,53.3
2018-11-25T02:50:51.781Z,53.5
2018-11-25T02:51:53.403Z,53.4
2018-11-25T02:52:55.021Z,53.5
2018-11-25T02:53:56.370Z,53.4
2018-11-25T02:54:58.268Z,53.5
2018-11-25T02:55:59.930Z,53.5
2018-11-25T02:57:01.829Z,53.4
2018-11-25T02:58:03.451Z,53.7
2018-11-25T02:59:05.071Z,53.7
2018-11-25T03:00:06.705Z,53.3
2018-11-25T03:01:08.623Z,53.5
2018-11-25T03:02:09.973Z,53.5
2018-11-25T03:03:11.587Z,53.4
2018-11-25T03:04:13.206Z,53.5
2018-11-25T03:05:15.100Z,53.5
2018-11-25T03:06:16.995Z,53.4
2018-11-25T03:07:18.600Z,53.7
2018-11-25T03:08:20.496Z,53.4
2018-11-25T03:09:22.098Z,53.5
2018-11-25T03:10:23.443Z,53.4
2018-11-25T03:11:25.339Z,53.4
2018-11-25T03:12:27.232Z,53.5
2018-11-25T03:13:28.850Z,53.7
2018-11-25T03:14:30.744Z,53.4
2018-11-25T03:15:32.639Z,53.4
2018-11-25T03:16:33.960Z,53.4
2018-11-25T03:17:35.855Z,53.4
2018-11-25T03:18:37.478Z,53.3
2018-11-25T03:19:38.826Z,53.4
2018-11-25T03:20:40.722Z,53.6
2018-11-25T03:21:42.050Z,53.7
2018-11-25T03:22:43.379Z,53.5
2018-11-25T03:23:45.274Z,53.4
2018-11-25T03:24:47.166Z,53.6
2018-11-25T03:25:48.790Z,53.6
2018-11-25T03:26:50.686Z,53.5
2018-11-25T03:27:52.290Z,53.5
2018-11-25T03:28:53.919Z,53.5
2018-11-25T03:29:55.520Z,53.5
2018-11-25T03:30:57.141Z,53.4
2018-11-25T03:31:58.745Z,53.6
2018-11-25T03:33:00.363Z,53.4
2018-11-25T03:34:01.770Z,53.7
2018-11-25T03:35:03.667Z,53.4
2018-11-25T03:36:05.015Z,53.5
2018-11-25T03:37:06.637Z,53.6
2018-11-25T03:38:08.532Z,53.7
2018-11-25T03:39:10.430Z,53.4
2018-11-25T03:40:11.777Z,53.6
2018-11-25T03:41:13.105Z,53.6
2018-11-25T03:42:14.425Z,53.4
2018-11-25T03:43:15.757Z,53.5
2018-11-25T03:44:17.373Z,53.4
2018-11-25T03:45:18.721Z,53.4
2018-11-25T03:46:20.622Z,53.7
2018-11-25T03:47:22.238Z,53.4
2018-11-25T03:48:23.564Z,53.4
2018-11-25T03:49:25.459Z,53.4
2018-11-25T03:50:27.359Z,53.5
2018-11-25T03:51:28.705Z,53.8
2018-11-25T03:52:30.303Z,53.5
2018-11-25T03:53:31.924Z,53.4
2018-11-25T03:54:33.545Z,53.6
2018-11-25T03:55:34.319Z,53.5
2018-11-25T03:56:36.216Z,53.5
2018-11-25T03:57:37.607Z,53.7
2018-11-25T03:58:39.199Z,53.2
2018-11-25T03:59:41.095Z,53.7
2018-11-25T04:00:42.989Z,53.4
2018-11-25T04:01:44.886Z,53.4
2018-11-25T04:02:46.507Z,53.4
2018-11-25T04:03:48.167Z,53.3
2018-11-25T04:04:50.065Z,53.3
2018-11-25T04:05:51.392Z,53.5
2018-11-25T04:06:52.714Z,53
2018-11-25T04:07:54.611Z,53
2018-11-25T04:08:55.974Z,53.2
2018-11-25T04:09:57.598Z,53.3
2018-11-25T04:10:59.494Z,52.8
2018-11-25T04:12:01.095Z,53.1
2018-11-25T04:13:02.173Z,53
2018-11-25T04:14:03.517Z,53.2
2018-11-25T04:15:04.572Z,53.5
2018-11-25T04:16:06.194Z,53.6
2018-11-25T04:17:07.820Z,53.5
2018-11-25T04:18:09.439Z,53.4
2018-11-25T04:19:11.040Z,53.4
2018-11-25T04:20:12.369Z,53.6
2018-11-25T04:21:14.273Z,53.3
2018-11-25T04:22:15.900Z,53.2
2018-11-25T04:23:17.523Z,53.3
2018-11-25T04:24:19.141Z,53.5
2018-11-25T04:25:20.486Z,53.3
2018-11-25T04:26:22.085Z,53.2
2018-11-25T04:27:23.416Z,53.2
2018-11-25T04:28:25.033Z,53.2
2018-11-25T04:29:26.384Z,53.4
2018-11-25T04:30:27.734Z,53.5
2018-11-25T04:31:29.350Z,53.5
2018-11-25T04:32:30.976Z,53.5
2018-11-25T04:33:32.865Z,53.2
2018-11-25T04:34:34.251Z,53.3
2018-11-25T04:35:35.582Z,53.4
2018-11-25T04:36:37.487Z,53.4
2018-11-25T04:37:39.136Z,53.2
2018-11-25T04:38:40.464Z,53.4
2018-11-25T04:39:42.083Z,53.5
2018-11-25T04:40:43.702Z,53.6
2018-11-25T04:41:45.597Z,53.2
2018-11-25T04:42:47.223Z,53.6
2018-11-25T04:43:48.563Z,53.1
2018-11-25T04:44:50.188Z,53.2
2018-11-25T04:45:51.844Z,52.9
2018-11-25T04:46:53.466Z,52.9
2018-11-25T04:47:55.390Z,53.2
2018-11-25T04:48:57.008Z,53.1
2018-11-25T04:49:58.631Z,53.1
2018-11-25T04:51:00.522Z,53.2
2018-11-25T04:52:01.574Z,53.1
2018-11-25T04:53:03.197Z,53.2
2018-11-25T04:54:04.543Z,53
2018-11-25T04:55:06.162Z,53.1
2018-11-25T04:56:07.511Z,53
2018-11-25T04:57:09.406Z,53
2018-11-25T04:58:11.301Z,53.1
2018-11-25T04:59:13.196Z,53.6
2018-11-25T05:00:14.860Z,53
2018-11-25T05:01:16.186Z,53.1
2018-11-25T05:02:18.081Z,53.1
2018-11-25T05:03:19.435Z,53.1
2018-11-25T05:04:20.767Z,53.1
2018-11-25T05:05:21.870Z,52.9
2018-11-25T05:06:23.762Z,53.1
2018-11-25T05:07:25.666Z,53.1
2018-11-25T05:08:26.728Z,52.8
2018-11-25T05:09:28.625Z,52.8
2018-11-25T05:10:30.549Z,52.8
2018-11-25T05:11:31.893Z,52.7
2018-11-25T05:12:33.508Z,52.7
2018-11-25T05:13:35.131Z,52.9
2018-11-25T05:14:37.025Z,52.7
2018-11-25T05:15:38.649Z,52.9
2018-11-25T05:16:39.994Z,53
2018-11-25T05:17:41.887Z,52.7
2018-11-25T05:18:43.230Z,52.7
2018-11-25T05:19:45.126Z,52.6
2018-11-25T05:20:46.747Z,52.7
2018-11-25T05:21:48.641Z,53.5
2018-11-25T05:22:50.534Z,53.1
2018-11-25T05:23:52.156Z,53.6
2018-11-25T05:24:53.233Z,53.1
2018-11-25T05:25:54.582Z,53.2
2018-11-25T05:26:55.908Z,53.3
2018-11-25T05:27:57.535Z,53.7
2018-11-25T05:28:58.876Z,53.1
2018-11-25T05:30:00.546Z,53
2018-11-25T05:31:01.898Z,52.9
2018-11-25T05:32:03.516Z,53
2018-11-25T05:33:05.136Z,53.1
2018-11-25T05:34:06.760Z,52.8
2018-11-25T05:35:08.381Z,52.8
2018-11-25T05:36:09.702Z,52.8
2018-11-25T05:37:11.319Z,52.8
2018-11-25T05:38:12.936Z,52.9
2018-11-25T05:39:14.830Z,52.8
2018-11-25T05:40:16.730Z,52.8
2018-11-25T05:41:18.619Z,52.8
2018-11-25T05:42:19.693Z,52.8
2018-11-25T05:43:21.589Z,52.7
2018-11-25T05:44:23.485Z,52.6
2018-11-25T05:45:25.382Z,52.7
2018-11-25T05:46:26.429Z,53.1
2018-11-25T05:47:27.495Z,52.8
2018-11-25T05:48:29.391Z,53
2018-11-25T05:49:37.010Z,53.1
2018-11-25T05:50:38.628Z,53.2
2018-11-25T05:51:40.252Z,53
2018-11-25T05:52:41.600Z,53.1
2018-11-25T05:53:43.216Z,53.2
2018-11-25T05:54:44.562Z,53.2
2018-11-25T05:55:46.223Z,53
2018-11-25T05:56:48.115Z,52.6
2018-11-25T05:57:50.017Z,52.5
2018-11-25T05:58:51.640Z,52.7
2018-11-25T05:59:52.963Z,52.8
2018-11-25T06:00:54.561Z,52.8
2018-11-25T06:01:56.181Z,52.9
2018-11-25T06:02:57.806Z,52.8
2018-11-25T06:03:59.426Z,52.8
2018-11-25T06:05:01.049Z,52.9
2018-11-25T06:06:02.375Z,52.9
2018-11-25T06:07:03.999Z,52.7
2018-11-25T06:08:05.896Z,52.9
2018-11-25T06:09:07.245Z,52.9
2018-11-25T06:10:08.594Z,52.9
2018-11-25T06:11:10.488Z,52.8
2018-11-25T06:12:12.385Z,52.8
2018-11-25T06:13:13.729Z,52.9
2018-11-25T06:14:15.626Z,52.6
2018-11-25T06:15:17.227Z,52.7
2018-11-25T06:16:18.828Z,52.7
2018-11-25T06:17:20.427Z,52.6
2018-11-25T06:18:22.050Z,52.7
2018-11-25T06:19:23.953Z,52.7
2018-11-25T06:20:25.314Z,52.6
2018-11-25T06:21:26.914Z,52.5
2018-11-25T06:22:28.810Z,52.7
2018-11-25T06:23:30.137Z,52.7
2018-11-25T06:24:31.759Z,52.5
2018-11-25T06:25:33.358Z,52.7
2018-11-25T06:26:34.978Z,52.6
2018-11-25T06:27:38.660Z,52.4
2018-11-25T06:28:40.554Z,52.5
2018-11-25T06:29:42.178Z,52.6
2018-11-25T06:30:44.076Z,52.5
2018-11-25T06:31:45.698Z,52.6
2018-11-25T06:32:47.624Z,52.8
2018-11-25T06:33:49.522Z,52.5
2018-11-25T06:34:51.416Z,52.5
2018-11-25T06:35:52.535Z,52.7
2018-11-25T06:36:54.154Z,52.7
2018-11-25T06:37:55.777Z,52.7
2018-11-25T06:38:56.832Z,52.6
2018-11-25T06:39:58.168Z,52.7
2018-11-25T06:40:59.790Z,52.5
2018-11-25T06:42:01.402Z,52.7
2018-11-25T06:43:03.297Z,52.7
2018-11-25T06:44:04.624Z,52.6
2018-11-25T06:45:05.970Z,52.8
2018-11-25T06:46:07.872Z,52.6
2018-11-25T06:47:09.760Z,52.5
2018-11-25T06:48:10.871Z,52.4
2018-11-25T06:49:12.270Z,52.5
2018-11-25T06:50:13.619Z,52.5
2018-11-25T06:51:14.946Z,52.6
2018-11-25T06:52:16.571Z,52.5
2018-11-25T06:53:17.891Z,52.7
2018-11-25T06:54:19.493Z,52.7
2018-11-25T06:55:21.388Z,52.7
2018-11-25T06:56:27.919Z,52.6
2018-11-25T06:57:29.266Z,52.5
2018-11-25T06:58:30.884Z,52.6
2018-11-25T06:59:32.563Z,52.5
2018-11-25T07:00:34.471Z,52.6
2018-11-25T07:01:36.067Z,52.7
2018-11-25T07:02:37.668Z,52.5
2018-11-25T07:03:39.562Z,52.7
2018-11-25T07:04:40.908Z,52.7
2018-11-25T07:05:42.511Z,52.6
2018-11-25T07:06:44.134Z,52.5
2018-11-25T07:07:45.189Z,52.6
2018-11-25T07:08:46.541Z,52.7
2018-11-25T07:09:48.431Z,52.6
2018-11-25T07:10:49.768Z,52.6
2018-11-25T07:11:51.100Z,52.6
2018-11-25T07:12:52.422Z,52.6
2018-11-25T07:13:54.330Z,52.7
2018-11-25T07:14:55.946Z,52.6
2018-11-25T07:15:57.571Z,52.6
2018-11-25T07:16:59.476Z,52.8
2018-11-25T07:18:01.071Z,52.9
2018-11-25T07:19:02.721Z,53.1
2018-11-25T07:20:04.349Z,52.5
2018-11-25T07:21:05.973Z,53.3
2018-11-25T07:22:07.030Z,53.2
2018-11-25T07:23:08.649Z,53.1
2018-11-25T07:24:10.273Z,52.6
2018-11-25T07:25:11.902Z,52.6
2018-11-25T07:26:13.523Z,52.6
2018-11-25T07:27:14.850Z,52.5
2018-11-25T07:28:19.138Z,52.6
2018-11-25T07:29:20.757Z,52.6
2018-11-25T07:30:22.674Z,52.7
2018-11-25T07:31:24.036Z,52.5
2018-11-25T07:32:25.382Z,52.9
2018-11-25T07:33:27.002Z,52.9
2018-11-25T07:34:28.899Z,52.9
2018-11-25T07:35:30.518Z,52.9
2018-11-25T07:36:31.577Z,52.7
2018-11-25T07:37:33.473Z,53.1
2018-11-25T07:38:35.382Z,52.7
2018-11-25T07:39:37.005Z,52.7
2018-11-25T07:40:38.080Z,52.7
2018-11-25T07:41:39.979Z,52.6
2018-11-25T07:42:41.333Z,52.7
2018-11-25T07:43:42.946Z,52.7
2018-11-25T07:44:44.843Z,53
2018-11-25T07:45:46.187Z,52.6
2018-11-25T07:46:48.083Z,52.7
2018-11-25T07:47:49.409Z,52.7
2018-11-25T07:48:51.007Z,52.5
2018-11-25T07:49:52.908Z,52.4
2018-11-25T07:50:54.258Z,52.9
2018-11-25T07:51:55.876Z,52.5
2018-11-25T07:52:57.491Z,52.7
2018-11-25T07:53:59.105Z,52.7
2018-11-25T07:55:00.708Z,52.6
2018-11-25T07:56:02.318Z,52.5
2018-11-25T07:57:04.216Z,52.4
2018-11-25T07:58:05.817Z,52.7
2018-11-25T07:59:07.147Z,52.6
2018-11-25T08:00:08.496Z,52.6
2018-11-25T08:01:10.174Z,52.5
2018-11-25T08:02:12.071Z,52.7
2018-11-25T08:03:13.693Z,52.7
2018-11-25T08:04:15.023Z,52.5
2018-11-25T08:05:16.924Z,52.6
2018-11-25T08:06:18.550Z,52.6
2018-11-25T08:07:20.172Z,52.7
2018-11-25T08:08:21.796Z,52.9
2018-11-25T08:09:23.151Z,52.8
2018-11-25T08:10:24.799Z,52.8
2018-11-25T08:11:26.151Z,52.8
2018-11-25T08:12:28.053Z,52.7
2018-11-25T08:13:29.383Z,52.8
2018-11-25T08:14:30.981Z,52.9
2018-11-25T08:15:32.585Z,52.8
2018-11-25T08:16:33.657Z,52.8
2018-11-25T08:17:35.281Z,52.7
2018-11-25T08:18:36.902Z,53.4
2018-11-25T08:19:38.504Z,52.8
2018-11-25T08:20:40.127Z,52.9
2018-11-25T08:21:42.019Z,52.9
2018-11-25T08:22:43.071Z,52.9
2018-11-25T08:23:44.693Z,52.9
2018-11-25T08:24:46.589Z,52.8
2018-11-25T08:25:47.643Z,53.1
2018-11-25T08:26:49.264Z,52.8
2018-11-25T08:27:50.860Z,52.8
2018-11-25T08:28:52.757Z,52.8
2018-11-25T08:29:54.082Z,52.8
2018-11-25T08:30:55.981Z,52.9
2018-11-25T08:31:57.873Z,52.8
2018-11-25T08:32:59.773Z,52.7
2018-11-25T08:34:00.823Z,52.7
2018-11-25T08:35:02.148Z,52.6
2018-11-25T08:36:04.043Z,52.7
2018-11-25T08:37:05.943Z,52.7
2018-11-25T08:38:07.832Z,52.7
2018-11-25T08:39:09.731Z,53.1
2018-11-25T08:40:11.625Z,53.3
2018-11-25T08:41:13.248Z,53.3
2018-11-25T08:42:14.612Z,53.3
2018-11-25T08:43:15.945Z,53.3
2018-11-25T08:44:17.841Z,53.1
2018-11-25T08:45:19.733Z,53
2018-11-25T08:46:21.350Z,53.3
2018-11-25T08:47:22.969Z,53
2018-11-25T08:48:24.593Z,53.7
2018-11-25T08:49:25.944Z,52.9
2018-11-25T08:50:27.290Z,52.7
2018-11-25T08:51:28.619Z,52.8
2018-11-25T08:52:30.511Z,52.7
2018-11-25T08:53:32.134Z,53
2018-11-25T08:54:33.184Z,53
2018-11-25T08:55:34.232Z,53
2018-11-25T08:56:35.853Z,53
2018-11-25T08:57:37.473Z,53
2018-11-25T08:58:39.095Z,53
2018-11-25T08:59:40.718Z,53
2018-11-25T09:00:42.064Z,52.8
2018-11-25T09:01:43.684Z,53
2018-11-25T09:02:45.051Z,52.7
2018-11-25T09:03:46.671Z,53.2
2018-11-25T09:04:48.567Z,52.9
2018-11-25T09:05:50.478Z,52.9
2018-11-25T09:06:52.097Z,52.9
2018-11-25T09:07:53.423Z,52.8
2018-11-25T09:08:55.046Z,52.8
2018-11-25T09:09:56.680Z,52.8
2018-11-25T09:10:58.277Z,52.9
2018-11-25T09:12:00.173Z,52.9
2018-11-25T09:13:02.073Z,52.9
2018-11-25T09:14:03.414Z,52.9
2018-11-25T09:15:04.769Z,53.2
2018-11-25T09:16:06.386Z,53
2018-11-25T09:17:08.281Z,53
2018-11-25T09:18:10.178Z,53
2018-11-25T09:19:11.797Z,53
2018-11-25T09:20:13.403Z,52.6
2018-11-25T09:21:15.029Z,52.7
2018-11-25T09:22:16.922Z,52.7
2018-11-25T09:23:18.817Z,53.2
2018-11-25T09:24:20.441Z,53
2018-11-25T09:25:22.039Z,52.8
2018-11-25T09:26:23.663Z,52.8
2018-11-25T09:27:24.987Z,52.6
2018-11-25T09:28:26.818Z,52.9
2018-11-25T09:29:29.051Z,53
2018-11-25T09:30:30.658Z,53
2018-11-25T09:31:32.555Z,52.9
2018-11-25T09:32:33.901Z,52.7
2018-11-25T09:33:35.796Z,52.9
2018-11-25T09:34:37.418Z,52.8
2018-11-25T09:35:39.039Z,52.8
2018-11-25T09:36:40.932Z,52.8
2018-11-25T09:37:42.288Z,52.8
2018-11-25T09:38:43.904Z,52.9
2018-11-25T09:39:45.255Z,52.9
2018-11-25T09:40:46.608Z,52.8
2018-11-25T09:41:48.208Z,52.9
2018-11-25T09:42:49.832Z,52.8
2018-11-25T09:43:51.447Z,52.7
2018-11-25T09:44:52.772Z,52.9
2018-11-25T09:45:54.669Z,52.9
2018-11-25T09:46:56.291Z,52.7
2018-11-25T09:47:57.913Z,52.6
2018-11-25T09:48:59.585Z,52.6
2018-11-25T09:50:01.488Z,53.1
2018-11-25T09:51:03.386Z,52.9
2018-11-25T09:52:04.994Z,52.9
2018-11-25T09:53:06.313Z,52.8
2018-11-25T09:54:07.368Z,52.9
2018-11-25T09:55:08.964Z,53
2018-11-25T09:56:10.319Z,52.8
2018-11-25T09:57:11.920Z,52.8
2018-11-25T09:58:13.813Z,52.8
2018-11-25T09:59:15.431Z,53.2
2018-11-25T10:00:17.063Z,53.3
2018-11-25T10:01:18.727Z,53.1
2018-11-25T10:02:20.076Z,53.4
2018-11-25T10:03:21.971Z,53.1
2018-11-25T10:04:23.869Z,53.6
2018-11-25T10:05:25.764Z,53
2018-11-25T10:06:27.422Z,53.3
2018-11-25T10:07:29.020Z,53.2
2018-11-25T10:08:30.351Z,53
2018-11-25T10:09:31.403Z,52.8
2018-11-25T10:10:32.732Z,53.2
2018-11-25T10:11:34.355Z,53.2
2018-11-25T10:12:35.978Z,52.9
2018-11-25T10:13:37.327Z,53
2018-11-25T10:14:38.947Z,53.3
2018-11-25T10:15:40.294Z,53
2018-11-25T10:16:41.631Z,53.3
2018-11-25T10:17:42.407Z,53.2
2018-11-25T10:18:44.300Z,53.2
2018-11-25T10:19:45.896Z,53.3
2018-11-25T10:20:47.791Z,53.6
2018-11-25T10:21:49.413Z,53.3
2018-11-25T10:22:51.309Z,53.3
2018-11-25T10:23:52.933Z,53.5
2018-11-25T10:24:54.576Z,53.5
2018-11-25T10:25:55.921Z,53.4
2018-11-25T10:26:57.269Z,53.5
2018-11-25T10:27:58.343Z,53.4
2018-11-25T10:29:00.240Z,53.6
2018-11-25T10:30:02.139Z,53.3
2018-11-25T10:31:03.761Z,53.3
2018-11-25T10:32:05.652Z,53.2
2018-11-25T10:33:07.275Z,53.3
2018-11-25T10:34:08.879Z,53.3
2018-11-25T10:35:10.477Z,53.3
2018-11-25T10:36:12.370Z,53.6
2018-11-25T10:37:13.705Z,53.5
2018-11-25T10:38:15.595Z,53.4
2018-11-25T10:39:16.652Z,53.6
2018-11-25T10:40:18.548Z,53.5
2018-11-25T10:41:19.876Z,53.7
2018-11-25T10:42:21.774Z,53.7
2018-11-25T10:43:23.669Z,53.6
2018-11-25T10:44:25.564Z,53
2018-11-25T10:45:27.162Z,52.8
2018-11-25T10:46:29.060Z,52.9
2018-11-25T10:47:30.404Z,53.2
2018-11-25T10:48:31.752Z,53.2
2018-11-25T10:49:33.358Z,53.3
2018-11-25T10:50:35.247Z,53.2
2018-11-25T10:51:37.144Z,53.2
2018-11-25T10:52:38.476Z,53.3
2018-11-25T10:53:39.802Z,53.2
2018-11-25T10:54:41.700Z,53.3
2018-11-25T10:55:43.321Z,53.3
2018-11-25T10:56:44.101Z,53.2
2018-11-25T10:57:45.458Z,53.1
2018-11-25T10:58:47.076Z,53.3
2018-11-25T10:59:48.696Z,52.9
2018-11-25T11:00:50.377Z,53
2018-11-25T11:01:51.970Z,53.4
2018-11-25T11:02:53.589Z,52.9
2018-11-25T11:03:55.189Z,52.9
2018-11-25T11:04:56.809Z,53
2018-11-25T11:05:58.158Z,53.4
2018-11-25T11:06:59.779Z,53.1
2018-11-25T11:08:01.128Z,53.3
2018-11-25T11:09:03.030Z,53.3
2018-11-25T11:10:04.635Z,53.3
2018-11-25T11:11:05.682Z,53
2018-11-25T11:12:07.005Z,53.3
2018-11-25T11:13:08.627Z,53.3
2018-11-25T11:14:10.245Z,53
2018-11-25T11:15:12.148Z,53
2018-11-25T11:16:14.043Z,53
2018-11-25T11:17:15.370Z,53.4
2018-11-25T11:18:16.986Z,53
2018-11-25T11:19:18.318Z,53.3
2018-11-25T11:20:19.941Z,53.6
2018-11-25T11:21:21.301Z,53.6
2018-11-25T11:22:22.901Z,53.5
2018-11-25T11:23:24.790Z,53.3
2018-11-25T11:24:26.117Z,53.7
2018-11-25T11:25:27.740Z,53.6
2018-11-25T11:26:29.640Z,53.5
2018-11-25T11:27:31.238Z,53.7
2018-11-25T11:28:32.301Z,53.6
2018-11-25T11:29:33.634Z,53.5
2018-11-25T11:30:35.254Z,53.6
2018-11-25T11:31:36.580Z,53.3
2018-11-25T11:32:37.632Z,53.5
2018-11-25T11:33:39.252Z,53.5
2018-11-25T11:34:40.883Z,53.6
2018-11-25T11:35:42.226Z,53.6
2018-11-25T11:36:44.129Z,53.7
2018-11-25T11:37:45.174Z,53.4
2018-11-25T11:38:46.798Z,53.4
2018-11-25T11:39:48.701Z,53.7
2018-11-25T11:40:50.590Z,53.7
2018-11-25T11:41:52.485Z,53.8
2018-11-25T11:42:53.809Z,53.7
2018-11-25T11:43:55.157Z,53.5
2018-11-25T11:44:56.482Z,53.5
2018-11-25T11:45:57.531Z,53.4
2018-11-25T11:46:59.157Z,53.5
2018-11-25T11:48:00.765Z,53.5
2018-11-25T11:49:02.384Z,53.6
2018-11-25T11:50:03.730Z,53.7
2018-11-25T11:51:05.628Z,53.6
2018-11-25T11:52:06.703Z,53.6
2018-11-25T11:53:08.301Z,53.9
2018-11-25T11:54:09.628Z,53.7
2018-11-25T11:55:11.250Z,53.7
2018-11-25T11:56:12.882Z,53.7
2018-11-25T11:57:14.208Z,53.5
2018-11-25T11:58:15.538Z,53.5
2018-11-25T11:59:17.433Z,53.7
2018-11-25T12:00:19.329Z,53.6
2018-11-25T12:01:21.223Z,53.7
2018-11-25T12:02:22.283Z,53.5
2018-11-25T12:03:27.233Z,53.7
2018-11-25T12:04:29.131Z,53.7
2018-11-25T12:05:30.177Z,53.7
2018-11-25T12:06:31.525Z,53.8
2018-11-25T12:07:33.420Z,53.8
2018-11-25T12:08:35.021Z,53.8
2018-11-25T12:09:36.643Z,53.5
2018-11-25T12:10:37.992Z,53.5
2018-11-25T12:11:39.614Z,53.6
2018-11-25T12:12:40.965Z,53.6
2018-11-25T12:13:42.564Z,53.8
2018-11-25T12:14:44.460Z,53.8
2018-11-25T12:15:46.355Z,53.9
2018-11-25T12:16:47.975Z,53.8
2018-11-25T12:17:49.299Z,53.8
2018-11-25T12:18:50.370Z,53.9
2018-11-25T12:19:51.970Z,53.5
2018-11-25T12:20:53.912Z,53.8
2018-11-25T12:21:58.853Z,53.7
2018-11-25T12:23:00.203Z,53.6
2018-11-25T12:24:01.820Z,53.7
2018-11-25T12:25:03.721Z,53.8
2018-11-25T12:26:05.327Z,53.7
2018-11-25T12:27:06.949Z,53.4
2018-11-25T12:28:08.295Z,53.6
2018-11-25T12:29:09.917Z,53.5
2018-11-25T12:30:11.544Z,53.5
2018-11-25T12:31:13.168Z,53.5
2018-11-25T12:32:15.062Z,53.4
2018-11-25T12:33:16.386Z,53.5
2018-11-25T12:34:17.989Z,53.4
2018-11-25T12:35:19.343Z,53.4
2018-11-25T12:36:20.661Z,53.4
2018-11-25T12:37:22.553Z,53.4
2018-11-25T12:38:23.903Z,53.4
2018-11-25T12:39:29.014Z,53.3
2018-11-25T12:40:30.634Z,53.5
2018-11-25T12:41:32.255Z,53.7
2018-11-25T12:42:33.877Z,53.5
2018-11-25T12:43:35.483Z,53.4
2018-11-25T12:44:37.383Z,53.4
2018-11-25T12:45:38.984Z,53.4
2018-11-25T12:46:40.330Z,53.4
2018-11-25T12:47:42.225Z,53.4
2018-11-25T12:48:44.121Z,53.2
2018-11-25T12:49:45.749Z,53.4
2018-11-25T12:50:47.642Z,53.4
2018-11-25T12:51:49.539Z,53.3
2018-11-25T12:52:51.157Z,53.4
2018-11-25T12:53:52.207Z,53.5
2018-11-25T12:54:53.817Z,53.4
2018-11-25T12:55:55.151Z,53.4
2018-11-25T12:56:56.477Z,53.4
2018-11-25T12:57:58.371Z,53.5
2018-11-25T12:58:59.701Z,53.5
2018-11-25T13:00:01.325Z,53.4
2018-11-25T13:01:02.945Z,53.4
2018-11-25T13:02:04.847Z,53.6
2018-11-25T13:03:06.172Z,53.5
2018-11-25T13:04:07.521Z,53.9
2018-11-25T13:05:09.146Z,53.3
2018-11-25T13:06:10.782Z,53.3
2018-11-25T13:07:12.677Z,53.6
2018-11-25T13:08:14.301Z,53.4
2018-11-25T13:09:16.190Z,53.3
2018-11-25T13:10:17.791Z,53.4
2018-11-25T13:11:18.844Z,53.4
2018-11-25T13:12:20.487Z,53.1
2018-11-25T13:13:21.561Z,52.9
2018-11-25T13:14:23.184Z,52.9
2018-11-25T13:15:24.545Z,53
2018-11-25T13:16:25.875Z,52.9
2018-11-25T13:17:27.227Z,53
2018-11-25T13:18:28.565Z,53.3
2018-11-25T13:19:30.463Z,53.3
2018-11-25T13:20:32.083Z,53.3
2018-11-25T13:21:33.703Z,52.8
2018-11-25T13:22:35.597Z,53.3
2018-11-25T13:23:43.368Z,53.4
2018-11-25T13:24:44.760Z,52.9
2018-11-25T13:25:46.655Z,53.3
2018-11-25T13:26:48.274Z,53.3
2018-11-25T13:27:49.619Z,53
2018-11-25T13:28:51.220Z,53
2018-11-25T13:29:52.849Z,53.3
2018-11-25T13:30:54.471Z,53.3
2018-11-25T13:31:56.074Z,53.2
2018-11-25T13:32:57.695Z,53.3
2018-11-25T13:33:59.318Z,53.2
2018-11-25T13:35:01.220Z,53.2
2018-11-25T13:36:02.543Z,53.3
2018-11-25T13:37:03.872Z,53.7
2018-11-25T13:38:05.766Z,53.5
2018-11-25T13:39:06.541Z,53.8
2018-11-25T13:40:07.595Z,53.5
2018-11-25T13:41:09.217Z,53.3
2018-11-25T13:42:16.378Z,53.6
2018-11-25T13:43:17.994Z,54
2018-11-25T13:44:19.659Z,53.5